Time;durP1;ratioP1;P1;durP2;ratioP2;P2;SDS_P1;SDS_P2;PMS_P1;PMS_P2;Temp;Humidity;BMP_temperature;BMP_pressure;BME280_temperature;BME280_humidity;BME280_pressure;Samples;Min_cycle;Max_cycle;Signal;HPM_P1;HPM_P2
2022/06/22 05:13:43;;;;;;;;;17.00;16.33;;;;;20.28;53.12;100519.38;5162707;27;45424;-69
2022/06/22 05:16:14;;;;;;;;;23.67;20.33;;;;;20.40;52.35;100520.66;5109575;27;45324;-68
2022/06/22 05:18:42;;;;;;;;;15.67;15.00;;;;;20.60;52.06;100526.03;5103514;27;45357;-68
2022/06/22 05:21:35;;;;;;;;;16.00;15.33;;;;;20.82;51.70;100525.09;5114020;27;45456;-72
2022/06/22 05:24:08;;;;;;;;;18.33;16.33;;;;;20.94;51.07;100511.25;5117619;27;46039;-69
2022/06/22 05:26:35;;;;;;;;;12.33;11.67;;;;;21.23;51.53;100525.03;5130344;27;45938;-74
2022/06/22 05:29:11;;;;;;;;;15.67;15.00;;;;;21.41;50.45;100524.25;5114679;27;46042;-73
2022/06/22 05:31:48;;;;;;;;;17.67;16.33;;;;;21.57;49.99;100513.75;5114887;27;45328;-70
2022/06/22 05:34:24;;;;;;;;;16.00;15.67;;;;;21.71;49.46;100508.63;5113409;27;45461;-71
2022/06/22 05:36:56;;;;;;;;;13.33;13.33;;;;;21.83;49.06;100512.50;5113513;27;45569;-73
2022/06/22 05:39:22;;;;;;;;;13.00;13.00;;;;;21.91;49.05;100514.78;5121970;27;45402;-73
2022/06/22 05:41:48;;;;;;;;;16.33;14.67;;;;;21.88;48.88;100497.13;5114847;27;45489;-72
2022/06/22 05:44:18;;;;;;;;;14.00;12.33;;;;;22.07;48.67;100520.19;5116379;27;45460;-69
2022/06/22 05:46:53;;;;;;;;;13.00;13.00;;;;;22.08;48.43;100514.81;5117551;27;45506;-71
2022/06/22 05:49:22;;;;;;;;;17.33;15.67;;;;;22.14;48.19;100514.50;5107114;27;45359;-80
2022/06/22 05:51:55;;;;;;;;;13.67;13.00;;;;;22.20;48.22;100518.66;5114582;27;45395;-73
2022/06/22 05:54:42;;;;;;;;;15.00;13.33;;;;;22.25;48.01;100518.47;5108334;27;46096;-68
2022/06/22 05:57:29;;;;;;;;;18.00;13.00;;;;;22.28;47.49;100516.53;5111310;27;45602;-68
2022/06/22 05:59:59;;;;;;;;;13.00;12.33;;;;;22.29;47.46;100518.25;5112158;27;45542;-69
2022/06/22 06:02:38;;;;;;;;;13.67;13.00;;;;;22.28;47.49;100511.19;5112144;27;45304;-69
2022/06/22 06:05:23;;;;;;;;;17.67;15.00;;;;;22.16;47.31;100485.06;5108300;27;46840;-69
2022/06/22 06:07:53;;;;;;;;;14.00;14.00;;;;;22.30;47.35;100500.44;5109367;27;45536;-69
2022/06/22 06:10:27;;;;;;;;;16.67;14.67;;;;;22.32;47.09;100506.56;5107186;27;45537;-68
2022/06/22 06:13:01;;;;;;;;;14.33;13.67;;;;;22.31;47.27;100512.84;5108918;27;45437;-69
2022/06/22 06:15:32;;;;;;;;;16.67;14.00;;;;;22.28;47.28;100505.88;5108547;27;46132;-70
2022/06/22 06:18:05;;;;;;;;;16.67;16.33;;;;;22.30;47.03;100513.75;5098002;27;45380;-69
2022/06/22 06:20:39;;;;;;;;;17.00;17.00;;;;;22.24;47.00;100514.94;5112732;27;45393;-67
2022/06/22 06:23:17;;;;;;;;;17.33;17.00;;;;;22.29;47.01;100522.72;5110725;27;45325;-71
2022/06/22 06:28:47;;;;;;;;;16.67;15.33;;;;;22.31;46.99;100520.84;5101075;27;45327;-68
2022/06/22 06:31:56;;;;;;;;;17.00;16.33;;;;;22.33;46.99;100513.59;5106436;27;45627;-69
2022/06/22 06:34:35;;;;;;;;;15.00;14.00;;;;;22.35;47.03;100517.06;5103127;27;45468;-71
2022/06/22 06:37:24;;;;;;;;;18.00;14.33;;;;;22.32;46.90;100512.75;5097975;27;45601;-68
2022/06/22 06:39:54;;;;;;;;;18.00;16.67;;;;;22.33;46.85;100509.16;5096987;27;45556;-70
2022/06/22 06:42:36;;;;;;;;;16.00;15.33;;;;;22.29;47.00;100506.72;5097148;27;45442;-71
2022/06/22 06:45:13;;;;;;;;;17.33;16.00;;;;;22.35;46.99;100517.94;5097289;27;45552;-69
2022/06/22 06:48:06;;;;;;;;;16.33;14.67;;;;;22.29;47.82;100504.91;5097444;27;46437;-65
2022/06/22 06:50:41;;;;;;;;;15.33;13.67;;;;;22.41;46.94;100525.63;5097533;27;45411;-69
2022/06/22 06:53:22;;;;;;;;;21.00;17.33;;;;;22.33;46.83;100518.94;5088056;27;45434;-69
2022/06/22 06:56:11;;;;;;;;;18.00;17.00;;;;;22.43;46.72;100530.91;5097182;27;45654;-69
2022/06/22 06:58:51;;;;;;;;;16.67;14.00;;;;;22.46;46.63;100527.22;5089661;27;45732;-72
2022/06/22 07:01:24;;;;;;;;;20.00;16.00;;;;;22.50;46.39;100543.00;5096408;27;45431;-68
2022/06/22 07:03:58;;;;;;;;;14.33;14.33;;;;;22.50;46.38;100551.00;5082996;27;45535;-70
2022/06/22 07:06:27;;;;;;;;;20.00;17.33;;;;;22.48;46.60;100531.53;5079820;27;45829;-68
2022/06/22 07:09:09;;;;;;;;;18.67;17.67;;;;;22.54;46.40;100528.56;5078894;27;45351;-69
2022/06/22 07:11:48;;;;;;;;;15.00;13.33;;;;;22.54;46.54;100527.66;5101631;27;45821;-67
2022/06/22 07:14:32;;;;;;;;;16.33;16.33;;;;;22.54;46.44;100531.22;5095080;27;45390;-67
2022/06/22 07:17:11;;;;;;;;;16.50;15.00;;;;;22.38;46.22;100500.91;5085888;27;45452;-69
2022/06/22 07:19:46;;;;;;;;;17.00;16.33;;;;;22.47;46.43;100504.91;5084857;27;46673;-68
2022/06/22 07:22:20;;;;;;;;;16.33;14.67;;;;;22.61;46.30;100524.63;5088003;27;45548;-71
2022/06/22 07:24:58;;;;;;;;;19.33;15.67;;;;;22.65;46.27;100525.31;5094847;27;45457;-69
2022/06/22 07:27:32;;;;;;;;;16.33;16.33;;;;;22.69;46.14;100526.03;5084859;27;45434;-69
2022/06/22 07:30:25;;;;;;;;;18.00;15.67;;;;;22.69;45.82;100528.72;5099820;27;46186;-68
2022/06/22 07:33:14;;;;;;;;;15.00;15.00;;;;;22.55;46.17;100522.25;5093772;27;45530;-68
2022/06/22 07:35:54;;;;;;;;;20.00;18.33;;;;;22.51;46.52;100518.00;5112957;27;46105;-67
2022/06/22 07:38:41;;;;;;;;;18.00;17.00;;;;;22.59;46.40;100536.28;5096249;27;45503;-67
2022/06/22 07:41:19;;;;;;;;;16.00;15.33;;;;;22.63;46.29;100537.88;5089506;27;46217;-67
2022/06/22 07:44:07;;;;;;;;;15.00;14.33;;;;;22.64;46.17;100539.63;5096412;27;45329;-68
2022/06/22 07:47:01;;;;;;;;;17.33;17.33;;;;;22.74;46.00;100551.53;5095725;27;45694;-68
2022/06/22 07:49:49;;;;;;;;;18.67;18.67;;;;;22.79;45.72;100549.50;5085653;27;45560;-69
2022/06/22 07:52:22;;;;;;;;;17.33;17.33;;;;;22.86;45.61;100545.56;5093659;27;45976;-67
2022/06/22 07:54:56;;;;;;;;;19.00;18.33;;;;;22.96;45.82;100534.41;5076108;27;45386;-68
2022/06/22 07:57:37;;;;;;;;;13.67;13.67;;;;;23.06;45.27;100538.34;5093627;27;45373;-67
2022/06/22 08:00:16;;;;;;;;;19.67;17.00;;;;;23.22;45.10;100549.06;5085792;27;45487;-70
2022/06/22 08:03:03;;;;;;;;;17.33;16.33;;;;;23.33;44.90;100541.34;5082490;27;45945;-67
2022/06/22 08:05:38;;;;;;;;;21.00;19.33;;;;;23.50;44.75;100546.63;5092036;27;45527;-69
2022/06/22 08:08:22;;;;;;;;;18.67;17.33;;;;;23.71;44.37;100557.09;5112303;27;45406;-68
2022/06/22 08:10:57;;;;;;;;;18.00;17.67;;;;;23.84;43.84;100562.63;5094147;27;45325;-67
2022/06/22 08:13:27;;;;;;;;;20.67;15.33;;;;;23.98;44.06;100562.72;5087835;27;46551;-68
2022/06/22 08:15:57;;;;;;;;;19.00;19.00;;;;;24.13;43.99;100553.84;5093138;27;45666;-68
2022/06/22 08:18:23;;;;;;;;;19.00;17.00;;;;;24.29;43.42;100560.97;5081742;27;45345;-69
2022/06/22 08:20:52;;;;;;;;;15.67;15.67;;;;;24.45;43.23;100566.28;5091341;27;45369;-71
2022/06/22 08:23:22;;;;;;;;;18.33;17.67;;;;;24.59;43.08;100560.16;5099509;27;46253;-67
2022/06/22 08:25:51;;;;;;;;;16.33;13.67;;;;;24.66;42.70;100559.69;5087114;27;45403;-67
2022/06/22 08:28:20;;;;;;;;;18.00;17.00;;;;;24.76;43.13;100565.38;5095308;27;45469;-68
2022/06/22 08:30:56;;;;;;;;;14.33;14.33;;;;;24.71;42.95;100570.16;5092960;27;45921;-76
2022/06/22 08:33:34;;;;;;;;;19.67;17.00;;;;;24.67;43.37;100571.28;5087499;27;46222;-81
2022/06/22 08:36:04;;;;;;;;;15.67;15.67;;;;;24.61;43.16;100547.56;5088665;27;45614;-69
2022/06/22 08:38:49;;;;;;;;;21.33;17.00;;;;;24.58;42.70;100537.84;5094382;27;45784;-69
2022/06/22 08:42:04;;;;;;;;;16.67;15.67;;;;;24.84;43.01;100559.53;5087770;27;45384;-70
2022/06/22 08:45:04;;;;;;;;;17.33;16.33;;;;;24.95;42.23;100555.25;5084004;27;45599;-68
2022/06/22 08:47:29;;;;;;;;;13.67;13.00;;;;;24.99;42.25;100558.63;5092701;27;45256;-68
2022/06/22 08:50:13;;;;;;;;;16.33;14.33;;;;;24.97;42.12;100552.50;5094235;27;45534;-68
2022/06/22 08:53:20;;;;;;;;;21.33;19.33;;;;;24.80;42.76;100556.19;5113900;27;45446;-70
2022/06/22 08:55:53;;;;;;;;;16.67;16.00;;;;;24.58;43.23;100558.44;5096902;27;45506;-69
2022/06/22 08:58:18;;;;;;;;;17.00;15.33;;;;;24.47;43.55;100546.53;5098535;27;45229;-69
2022/06/22 09:01:02;;;;;;;;;17.33;15.00;;;;;24.46;43.95;100552.84;5098224;27;45488;-69
2022/06/22 09:04:08;;;;;;;;;14.00;12.33;;;;;24.51;44.71;100553.44;5093726;27;45561;-69
2022/06/22 09:06:47;;;;;;;;;15.00;15.00;;;;;24.58;44.33;100558.44;5096507;27;46217;-68
2022/06/22 09:09:42;;;;;;;;;16.00;16.00;;;;;24.53;43.78;100556.88;5093777;27;45360;-70
2022/06/22 09:12:46;;;;;;;;;16.67;16.00;;;;;24.68;44.02;100563.16;5095137;27;45418;-69
2022/06/22 09:15:24;;;;;;;;;15.33;15.00;;;;;24.76;43.51;100565.38;5111392;27;45505;-69
2022/06/22 09:18:13;;;;;;;;;15.67;15.67;;;;;24.79;43.91;100556.28;5080154;27;45580;-70
2022/06/22 09:21:17;;;;;;;;;16.00;16.00;;;;;24.79;43.82;100561.63;5098454;27;45480;-69
2022/06/22 09:23:57;;;;;;;;;17.67;16.33;;;;;24.75;43.81;100555.63;5089481;27;45437;-69
2022/06/22 09:26:35;;;;;;;;;16.00;14.33;;;;;24.74;43.69;100562.78;5086647;27;45368;-70
2022/06/22 09:29:14;;;;;;;;;19.33;19.00;;;;;24.55;43.71;100568.34;5083246;27;45539;-68
2022/06/22 09:31:49;;;;;;;;;23.33;22.33;;;;;24.47;43.57;100577.81;5095182;27;45369;-69
2022/06/22 09:34:44;;;;;;;;;16.00;15.67;;;;;24.46;43.86;100587.63;5097088;27;45649;-68
2022/06/22 09:37:15;;;;;;;;;20.67;18.67;;;;;24.33;43.71;100589.28;5096210;27;45302;-69
2022/06/22 09:40:09;;;;;;;;;23.67;22.67;;;;;24.27;43.61;100570.88;5093509;27;46863;-68
2022/06/22 09:42:54;;;;;;;;;23.67;19.00;;;;;24.12;44.52;100584.19;5097239;27;45498;-67
2022/06/22 09:45:44;;;;;;;;;17.00;16.00;;;;;24.07;44.88;100570.22;5093697;27;45437;-68
2022/06/22 09:48:12;;;;;;;;;14.67;14.67;;;;;24.22;44.83;100568.47;5092224;27;45537;-69
2022/06/22 09:50:46;;;;;;;;;18.33;18.33;;;;;24.14;44.74;100527.94;5092585;27;45547;-67
2022/06/22 09:53:49;;;;;;;;;20.33;19.00;;;;;24.42;44.10;100571.84;5093580;27;45510;-69
2022/06/22 09:56:27;;;;;;;;;22.00;21.00;;;;;24.49;43.73;100573.25;5082438;27;45745;-68
2022/06/22 09:59:20;;;;;;;;;19.33;18.00;;;;;24.58;43.99;100570.00;5093709;27;45527;-68
2022/06/22 10:02:24;;;;;;;;;15.67;15.67;;;;;24.73;44.08;100570.91;5097432;27;45644;-69
2022/06/22 10:05:26;;;;;;;;;18.33;18.33;;;;;24.96;43.67;100565.03;5097953;27;45448;-69
2022/06/22 10:08:21;;;;;;;;;17.33;16.67;;;;;25.10;42.78;100552.59;5097078;27;45547;-70
2022/06/22 10:11:09;;;;;;;;;19.00;17.33;;;;;25.30;43.08;100568.34;5097943;27;45586;-72
2022/06/22 10:13:43;;;;;;;;;18.67;16.67;;;;;25.53;43.14;100564.22;5096110;27;46006;-70
2022/06/22 10:16:35;;;;;;;;;19.67;17.00;;;;;25.76;42.86;100557.38;5096249;27;45477;-69
2022/06/22 10:19:15;;;;;;;;;22.67;20.33;;;;;25.77;41.95;100559.13;5089037;27;45465;-70
2022/06/22 10:21:51;;;;;;;;;18.00;18.00;;;;;25.76;41.90;100540.44;5097870;27;45632;-70
2022/06/22 10:24:43;;;;;;;;;21.67;20.67;;;;;25.98;41.68;100551.53;5096932;27;45441;-69
2022/06/22 10:27:24;;;;;;;;;21.00;19.00;;;;;26.16;41.86;100554.81;5096053;27;45894;-69
2022/06/22 10:30:27;;;;;;;;;24.00;22.33;;;;;26.34;41.82;100558.13;5096592;27;45848;-68
2022/06/22 10:33:15;;;;;;;;;22.33;19.00;;;;;26.45;41.44;100550.19;5112616;27;45562;-69
2022/06/22 10:35:45;;;;;;;;;17.67;17.67;;;;;26.65;41.97;100546.19;5087654;27;46603;-68
2022/06/22 10:38:51;;;;;;;;;20.33;19.00;;;;;26.79;41.85;100536.31;5096916;27;45955;-69
2022/06/22 10:45:23;;;;;;;;;17.33;17.33;;;;;27.27;41.47;100525.81;5089061;27;45633;-70
2022/06/22 10:48:09;;;;;;;;;16.00;16.00;;;;;27.47;41.34;100530.59;5108414;27;45463;-69
2022/06/22 10:51:17;;;;;;;;;25.67;24.33;;;;;27.52;41.78;100530.28;5112229;27;45416;-68
2022/06/22 10:54:10;;;;;;;;;20.00;18.33;;;;;27.44;42.37;100517.38;5097153;27;45401;-70
2022/06/22 10:57:00;;;;;;;;;18.00;16.00;;;;;27.35;42.89;100518.03;5096830;27;45559;-70
2022/06/22 10:59:52;;;;;;;;;17.00;16.00;;;;;27.31;43.01;100500.41;5084303;27;46380;-68
2022/06/22 11:02:29;;;;;;;;;15.00;14.67;;;;;27.41;43.53;100517.63;5095900;27;45317;-69
2022/06/22 11:05:01;;;;;;;;;17.67;17.67;;;;;27.38;43.65;100515.13;5096226;27;45526;-68
2022/06/22 11:08:00;;;;;;;;;14.67;13.00;;;;;27.43;43.62;100510.31;5111973;27;45510;-68
2022/06/22 11:10:37;;;;;;;;;16.00;14.67;;;;;27.34;44.04;100532.47;5096230;27;45406;-70
2022/06/22 11:13:31;;;;;;;;;14.33;14.33;;;;;27.22;44.02;100536.03;5095727;27;45454;-68
2022/06/22 11:16:40;;;;;;;;;15.00;14.67;;;;;27.02;44.77;100534.72;5096036;27;45429;-70
2022/06/22 11:19:24;;;;;;;;;16.00;16.00;;;;;26.66;45.28;100530.94;5089127;27;45567;-71
2022/06/22 11:21:59;;;;;;;;;19.67;15.00;;;;;26.41;45.62;100537.06;5100256;27;45484;-69
2022/06/22 11:24:46;;;;;;;;;16.67;16.00;;;;;26.04;46.48;100534.16;5099994;27;45484;-70
2022/06/22 11:33:08;;;;;;;;;17.00;15.00;;;;;25.57;47.95;100536.25;5098739;27;45894;-70
2022/06/22 11:35:43;;;;;;;;;17.33;17.33;;;;;25.56;47.88;100539.03;5115777;27;45729;-69
2022/06/22 11:38:39;;;;;;;;;36.00;32.67;;;;;25.22;48.49;100514.34;5105275;27;45401;-68
2022/06/22 11:41:19;;;;;;;;;23.33;21.33;;;;;25.27;48.84;100543.53;5096401;27;45343;-69
2022/06/22 11:44:03;;;;;;;;;18.00;16.67;;;;;25.15;48.90;100537.97;5095661;27;45322;-70
2022/06/22 11:46:50;;;;;;;;;20.00;16.67;;;;;25.05;49.43;100523.41;5112995;27;45470;-70
2022/06/22 11:49:26;;;;;;;;;16.33;16.33;;;;;24.96;49.51;100532.88;5101606;27;45522;-71
2022/06/22 11:52:21;;;;;;;;;18.67;18.00;;;;;24.80;49.83;100524.06;5095377;27;45388;-70
2022/06/22 11:55:21;;;;;;;;;19.67;19.00;;;;;24.82;50.32;100540.03;5110356;27;47208;-71
2022/06/22 11:58:08;;;;;;;;;20.00;20.00;;;;;24.82;50.59;100540.03;5083694;27;45302;-71
2022/06/22 12:00:33;;;;;;;;;17.00;17.00;;;;;24.78;50.41;100549.22;5095323;27;45450;-70
2022/06/22 12:03:18;;;;;;;;;20.00;17.33;;;;;24.69;51.01;100538.09;5111440;27;45559;-72
2022/06/22 12:06:21;;;;;;;;;17.33;16.00;;;;;24.84;50.88;100546.16;5095580;27;45518;-69
2022/06/22 12:08:47;;;;;;;;;18.67;18.00;;;;;24.84;50.94;100549.69;5094829;27;45709;-72
2022/06/22 12:11:26;;;;;;;;;20.00;19.33;;;;;24.80;51.00;100550.84;5095759;27;45522;-69
2022/06/22 12:17:02;;;;;;;;;20.33;20.33;;;;;24.71;51.16;100556.75;5087380;27;45809;-77
2022/06/22 12:19:52;;;;;;;;;24.33;19.33;;;;;24.67;51.56;100558.72;5090512;27;45550;-71
2022/06/22 12:22:44;;;;;;;;;20.33;20.33;;;;;24.44;51.65;100533.31;5098867;27;45534;-71
2022/06/22 12:25:10;;;;;;;;;22.67;20.67;;;;;24.59;51.24;100557.50;5082458;27;45761;-71
2022/06/22 12:27:42;;;;;;;;;15.67;15.67;;;;;24.64;51.74;100558.06;5091076;27;46305;-74
2022/06/22 12:30:26;;;;;;;;;25.33;20.67;;;;;24.67;51.50;100556.06;5098659;27;45357;-71
2022/06/22 12:33:13;;;;;;;;;46.67;38.00;;;;;24.68;51.52;100563.16;5096636;27;45493;-69
2022/06/22 12:35:56;;;;;;;;;41.67;36.00;;;;;24.76;51.67;100560.00;5083923;27;45475;-73
2022/06/22 12:38:38;;;;;;;;;39.33;33.00;;;;;24.63;51.87;100564.38;5094838;27;46240;-73
2022/06/22 12:41:22;;;;;;;;;16.33;16.33;;;;;24.43;52.26;100557.50;5095201;27;45471;-69
2022/06/22 12:44:07;;;;;;;;;24.33;21.33;;;;;24.50;51.86;100561.56;5098493;27;45524;-74
2022/06/22 12:46:55;;;;;;;;;23.67;22.67;;;;;24.40;52.30;100542.47;5090756;27;45453;-70
2022/06/22 12:49:36;;;;;;;;;20.00;18.00;;;;;24.44;52.70;100545.81;5087274;27;45491;-73
2022/06/22 12:52:10;;;;;;;;;27.00;23.67;;;;;24.49;52.21;100544.66;5085129;27;45606;-70
2022/06/22 12:54:41;;;;;;;;;21.67;20.33;;;;;24.53;52.29;100553.34;5079691;27;45528;-68
2022/06/22 12:57:06;;;;;;;;;20.00;18.33;;;;;24.60;52.17;100549.34;5077419;27;45793;-70
2022/06/22 12:59:35;;;;;;;;;24.00;24.00;;;;;24.58;52.54;100556.59;5075932;27;46165;-72
2022/06/22 13:02:14;;;;;;;;;19.33;19.33;;;;;24.64;53.17;100555.41;5090029;27;45567;-71
2022/06/22 13:04:42;;;;;;;;;25.00;21.00;;;;;24.80;52.16;100548.16;5085633;27;45527;-70
2022/06/22 13:07:12;;;;;;;;;21.00;19.00;;;;;25.00;51.77;100533.53;5092044;27;45601;-71
2022/06/22 13:09:39;;;;;;;;;16.67;16.33;;;;;25.07;51.35;100516.13;5098877;27;45502;-70
2022/06/22 13:12:20;;;;;;;;;22.67;22.67;;;;;25.20;51.30;100516.28;5095807;27;45559;-77
2022/06/22 13:14:56;;;;;;;;;22.33;21.33;;;;;25.28;51.22;100516.66;5112942;27;45446;-74
2022/06/22 13:17:30;;;;;;;;;23.00;20.00;;;;;25.60;50.54;100540.53;5089937;27;45475;-70
2022/06/22 13:20:17;;;;;;;;;19.67;19.33;;;;;25.74;50.17;100536.97;5096286;27;45753;-79
2022/06/22 13:22:52;;;;;;;;;24.33;22.33;;;;;25.78;49.61;100517.06;5096502;27;45457;-70
2022/06/22 13:25:49;;;;;;;;;22.33;22.00;;;;;25.93;49.63;100532.16;5108956;27;45389;-69
2022/06/22 13:28:31;;;;;;;;;20.67;20.67;;;;;26.01;49.03;100527.19;5058962;27;45806;-70
2022/06/22 13:31:05;;;;;;;;;21.00;21.00;;;;;26.07;48.92;100523.22;5090557;27;45481;-69
2022/06/22 13:33:46;;;;;;;;;21.67;21.67;;;;;26.05;48.44;100508.19;5087508;27;45370;-69
2022/06/22 13:36:23;;;;;;;;;24.67;20.00;;;;;26.12;48.65;100491.56;5095095;27;46148;-70
2022/06/22 13:38:56;;;;;;;;;19.67;19.33;;;;;26.42;48.78;100509.25;5104806;27;45287;-71
2022/06/22 13:41:45;;;;;;;;;24.67;22.00;;;;;26.56;48.29;100511.03;5091656;27;46598;-68
2022/06/22 13:44:37;;;;;;;;;25.67;22.33;;;;;26.63;48.16;100502.44;5098435;27;45402;-78
2022/06/22 13:47:28;;;;;;;;;22.67;22.67;;;;;26.57;47.97;100484.06;5094913;27;45693;-69
2022/06/22 13:50:37;;;;;;;;;25.33;23.00;;;;;26.57;48.58;100496.63;5098513;27;45657;-76
2022/06/22 13:53:17;;;;;;;;;24.00;24.00;;;;;26.63;48.53;100483.66;5097234;27;45749;-70
2022/06/22 13:56:00;;;;;;;;;19.67;19.00;;;;;26.78;48.39;100478.16;5095456;27;45831;-69
2022/06/22 13:58:47;;;;;;;;;24.00;23.67;;;;;26.93;48.16;100452.03;5095414;27;45537;-68
2022/06/22 14:01:19;;;;;;;;;21.00;21.00;;;;;27.14;47.97;100457.72;5095428;27;45484;-68
2022/06/22 14:04:00;;;;;;;;;22.33;19.00;;;;;27.37;48.05;100464.16;5096486;27;46023;-68
2022/06/22 14:06:36;;;;;;;;;20.33;19.67;;;;;27.51;47.52;100453.25;5108414;27;45522;-69
2022/06/22 14:09:23;;;;;;;;;21.33;19.33;;;;;27.59;47.03;100460.75;5095102;27;46031;-69
2022/06/22 14:12:07;;;;;;;;;22.00;19.67;;;;;27.59;47.04;100452.69;5095057;27;45490;-68
2022/06/22 14:14:41;;;;;;;;;20.00;18.00;;;;;27.59;47.19;100448.16;5094662;27;45506;-69
2022/06/22 14:17:21;;;;;;;;;16.33;16.33;;;;;27.62;46.59;100439.88;5089507;27;45387;-68
2022/06/22 14:20:03;;;;;;;;;19.00;19.00;;;;;27.17;46.18;100382.22;5094735;27;45659;-71
2022/06/22 14:22:39;;;;;;;;;19.00;17.67;;;;;27.36;46.48;100438.22;5089798;27;45564;-70
2022/06/22 14:25:36;;;;;;;;;17.67;17.67;;;;;27.18;46.24;100402.78;5096745;27;45393;-71
2022/06/22 14:28:13;;;;;;;;;22.00;20.00;;;;;27.13;46.56;100434.50;5092350;27;45582;-69
2022/06/22 14:30:44;;;;;;;;;19.33;17.67;;;;;27.09;46.78;100428.47;5094295;27;45641;-70
2022/06/22 14:33:22;;;;;;;;;19.00;19.00;;;;;27.00;46.51;100413.91;5093807;27;45513;-71
2022/06/22 14:36:09;;;;;;;;;18.33;14.67;;;;;27.07;46.16;100416.97;5092811;27;45454;-70
2022/06/22 14:39:01;;;;;;;;;17.33;17.33;;;;;27.14;46.50;100418.25;5088920;27;45499;-70
2022/06/22 14:41:32;;;;;;;;;29.00;25.33;;;;;27.07;46.71;100412.47;5095556;27;45473;-69
2022/06/22 14:44:17;;;;;;;;;25.67;23.33;;;;;27.02;47.13;100401.19;5093117;27;45447;-70
2022/06/22 14:46:51;;;;;;;;;29.67;27.33;;;;;26.90;47.08;100391.31;5095285;27;45705;-70
2022/06/22 14:49:23;;;;;;;;;25.67;25.67;;;;;26.99;47.14;100397.88;5093942;27;45485;-71
2022/06/22 14:52:00;;;;;;;;;30.67;29.67;;;;;26.92;47.08;100384.00;5094234;27;45811;-69
2022/06/22 14:54:49;;;;;;;;;27.67;27.33;;;;;27.16;46.99;100402.00;5095166;27;45609;-69
2022/06/22 14:57:29;;;;;;;;;37.67;30.33;;;;;27.35;46.18;100406.94;5094916;27;45590;-70
2022/06/22 15:00:07;;;;;;;;;32.33;29.67;;;;;27.44;46.13;100409.81;5094971;27;45426;-73
2022/06/22 15:02:46;;;;;;;;;21.00;19.67;;;;;27.53;45.57;100408.28;5095539;27;45444;-70
2022/06/22 15:05:37;;;;;;;;;19.67;18.00;;;;;27.67;45.24;100420.72;5092668;27;45537;-71
2022/06/22 15:08:14;;;;;;;;;16.67;16.67;;;;;27.81;44.84;100412.44;5092152;27;45503;-71
2022/06/22 15:10:52;;;;;;;;;22.33;19.67;;;;;27.92;44.25;100415.19;5107220;27;45422;-70
2022/06/22 15:13:46;;;;;;;;;16.33;16.33;;;;;27.89;43.89;100423.50;5094613;27;45732;-73
2022/06/22 15:16:19;;;;;;;;;16.00;15.33;;;;;27.88;43.80;100416.44;5093555;27;45531;-70
2022/06/22 15:19:05;;;;;;;;;17.00;14.67;;;;;27.98;43.45;100432.75;5098045;27;45440;-71
2022/06/22 15:21:44;;;;;;;;;24.00;18.67;;;;;27.87;42.94;100420.06;5089653;27;46016;-71
2022/06/22 15:24:43;;;;;;;;;19.00;18.33;;;;;27.74;43.39;100415.69;5091722;27;46473;-70
2022/06/22 15:27:30;;;;;;;;;17.33;15.00;;;;;27.64;43.56;100431.66;5092625;27;45465;-71
2022/06/22 15:29:57;;;;;;;;;19.33;14.67;;;;;27.69;43.34;100432.19;5092416;27;45346;-71
2022/06/22 15:33:01;;;;;;;;;12.67;12.67;;;;;27.70;42.78;100444.69;5096327;27;45761;-71
2022/06/22 15:35:56;;;;;;;;;15.67;15.67;;;;;27.53;42.94;100427.09;5086092;27;45630;-72
2022/06/22 15:38:39;;;;;;;;;19.00;18.00;;;;;27.66;43.08;100440.50;5090421;27;46268;-70
2022/06/22 15:42:00;;;;;;;;;16.33;16.00;;;;;27.67;42.98;100431.47;5095664;27;45574;-70
2022/06/22 15:44:43;;;;;;;;;19.33;19.00;;;;;27.55;42.22;100410.84;5082992;27;45793;-71
2022/06/22 15:47:32;;;;;;;;;18.00;17.00;;;;;27.55;42.35;100446.69;5094338;27;45547;-71
2022/06/22 15:50:16;;;;;;;;;16.33;16.33;;;;;27.44;42.81;100439.38;5093997;27;45667;-69
2022/06/22 15:52:46;;;;;;;;;18.67;17.00;;;;;27.38;43.01;100442.53;5096757;27;46552;-73
2022/06/22 15:55:22;;;;;;;;;18.33;17.67;;;;;27.26;43.25;100444.31;5092813;27;45420;-73
2022/06/22 15:57:54;;;;;;;;;17.33;15.33;;;;;27.15;43.31;100437.94;5093436;27;45477;-71
2022/06/22 16:00:26;;;;;;;;;15.33;15.33;;;;;27.11;43.64;100444.50;5095465;27;45400;-73
2022/06/22 16:02:56;;;;;;;;;16.00;15.67;;;;;27.08;43.45;100440.22;5094060;27;46126;-74
2022/06/22 16:05:34;;;;;;;;;16.67;15.33;;;;;27.05;43.36;100441.28;5094236;27;45360;-76
2022/06/22 16:08:25;;;;;;;;;16.00;15.67;;;;;26.86;43.38;100416.69;5092258;27;45504;-70
2022/06/22 16:14:09;;;;;;;;;13.67;13.67;;;;;26.86;43.91;100428.31;5093941;27;45704;-70
2022/06/22 16:17:00;;;;;;;;;18.67;17.33;;;;;26.74;43.39;100379.94;5092883;27;45350;-71
2022/06/22 16:20:05;;;;;;;;;14.00;14.00;;;;;26.98;43.59;100414.94;5080686;27;45712;-71
2022/06/22 16:22:36;;;;;;;;;17.33;15.00;;;;;26.94;43.56;100400.88;5097411;27;45799;-74
2022/06/22 16:25:13;;;;;;;;;18.00;17.00;;;;;27.00;43.49;100413.91;5092589;27;45483;-70
2022/06/22 16:27:57;;;;;;;;;17.00;15.67;;;;;27.11;43.83;100406.88;5092610;27;45490;-72
2022/06/22 16:30:50;;;;;;;;;15.67;13.00;;;;;27.26;43.55;100405.78;5092130;27;45608;-73
2022/06/22 16:33:57;;;;;;;;;18.33;17.33;;;;;27.38;43.46;100406.72;5107267;27;45622;-71
2022/06/22 16:36:40;;;;;;;;;19.67;19.67;;;;;27.20;43.51;100379.34;5007615;28;46136;-70
2022/06/22 16:39:30;;;;;;;;;20.33;16.33;;;;;27.34;44.02;100402.56;5087462;27;45510;-71
2022/06/22 16:42:29;;;;;;;;;18.33;18.33;;;;;27.42;43.80;100405.50;5096665;27;45513;-73
2022/06/22 16:45:09;;;;;;;;;18.00;18.00;;;;;27.13;43.49;100351.19;5111979;27;45454;-72
2022/06/22 16:47:48;;;;;;;;;19.00;18.00;;;;;27.03;43.85;100333.03;5096407;27;45336;-72
2022/06/22 16:50:17;;;;;;;;;20.00;18.00;;;;;27.44;44.12;100399.06;5094859;27;45759;-69
2022/06/22 16:52:47;;;;;;;;;19.00;19.00;;;;;27.40;44.05;100381.41;5092786;27;45360;-75
2022/06/22 16:55:36;;;;;;;;;16.67;16.67;;;;;27.45;43.45;100363.13;5094184;27;45534;-70
2022/06/22 16:58:02;;;;;;;;;15.33;14.33;;;;;27.62;43.15;100377.13;5092991;27;45780;-71
2022/06/22 17:00:48;;;;;;;;;17.67;17.67;;;;;27.44;43.34;100364.09;5095195;27;45844;-70
2022/06/22 17:03:20;;;;;;;;;20.00;17.33;;;;;27.68;43.78;100392.81;5089443;27;45468;-69
2022/06/22 17:05:58;;;;;;;;;17.33;16.67;;;;;27.68;43.67;100390.13;5092292;27;45841;-70
2022/06/22 17:08:31;;;;;;;;;17.33;17.33;;;;;27.79;43.48;100395.56;5090701;27;45455;-71
2022/06/22 17:11:07;;;;;;;;;18.00;17.67;;;;;27.74;42.78;100389.69;5094648;27;45797;-69
2022/06/22 17:13:37;;;;;;;;;17.33;16.67;;;;;27.72;43.00;100401.53;5084613;27;45506;-71
2022/06/22 17:16:12;;;;;;;;;17.33;17.00;;;;;27.67;43.25;100397.34;5098088;27;45610;-71
2022/06/22 17:18:43;;;;;;;;;17.33;17.33;;;;;27.77;43.07;100400.19;5096491;27;45993;-70
2022/06/22 17:21:47;;;;;;;;;18.33;17.33;;;;;27.70;42.75;100407.88;5092506;27;45429;-71
2022/06/22 17:24:43;;;;;;;;;21.33;20.67;;;;;27.42;43.02;100368.72;5090996;27;45663;-71
2022/06/22 17:27:28;;;;;;;;;20.67;20.67;;;;;27.60;43.25;100414.06;5089684;27;45447;-70
2022/06/22 17:30:16;;;;;;;;;19.33;18.67;;;;;27.46;43.42;100429.38;5092056;27;45290;-72
2022/06/22 17:33:00;;;;;;;;;20.67;20.67;;;;;27.38;43.51;100439.81;5095559;27;45499;-71
2022/06/22 17:36:27;;;;;;;;;22.33;21.33;;;;;27.14;44.03;100433.53;5107800;27;45510;-70
2022/06/22 17:39:31;;;;;;;;;23.33;21.67;;;;;26.85;45.00;100433.78;5068420;27;45546;-70
2022/06/22 17:42:08;;;;;;;;;20.33;20.00;;;;;26.74;45.03;100437.25;5093001;27;45628;-70
2022/06/22 17:44:58;;;;;;;;;20.33;18.00;;;;;26.60;45.64;100440.00;5098013;27;45412;-71
2022/06/22 17:47:29;;;;;;;;;18.00;18.00;;;;;26.60;45.44;100445.38;5094140;27;45508;-71